• Join FlightAware (Why Join?)
  • Login
  • US Flag 
06:30PM EDT


 

Airport Tracker/Info


-or-


 

Live Flight TrackerFlight Track Log ✈ KAP66 ✈ 24-Jun-2013 ✈ KACK - KEWB

Flight Track Log - Related Links

Times and Time Zones

All times are in EDT time to prevent confusion due to time zone crossing. See the KAP66 flight status page for this flight to view local times or setup timezone preferences in your user account.

Time Position Orientation Groundspeed Altitude Reporting Facility
EDT Latitude Longitude Course Direction KTS MPH feet Rate Location/Type
11:39AM 41.3646 -70.2941 302° West  Level Estimated
11:40AM 41.3832 -70.3332 302° West  Level Estimated
11:41AM 41.4017 -70.3722 302° West  Level Estimated
11:42AM 41.4202 -70.4113 302° West  Level Estimated
11:43AM 41.4387 -70.4504 302° West  Level Estimated
11:44AM 41.4572 -70.4896 302° West  Level Estimated
11:45AM 41.4757 -70.5287 302° West  Level Estimated
11:46AM 41.4941 -70.5679 302° West  Level Estimated
11:47AM 41.5126 -70.6071 302° West  Level Estimated
11:48AM 41.5310 -70.6463 302° West  Level Estimated
11:49AM 41.5494 -70.6856 302° West  Level Estimated
11:50AM 41.5678 -70.7249 302° West  Level Estimated
11:51AM 41.5862 -70.7642 302° West  Level Estimated
11:52AM 41.6046 -70.8035 302° West  Level Estimated
11:53AM 41.6230 -70.8428 302° West  Level Estimated
11:54AM 41.6413 -70.8822 302° West  Level Estimated
11:55AM 41.6597 -70.9215 302° West  Level Estimated
11:56AM 41.6766 -70.9578 302° West  Level Estimated
11:57AM 41.6766 -70.9578 143° Southeast  Level Estimated
11:58AM 41.6766 -70.9578 143° Southeast  Level Estimated
11:59AM 41.6766 -70.9578 143° Southeast  Level Estimated
12:00PM 41.6766 -70.9578 143° Southeast  Level Estimated
12:01PM 41.6766 -70.9578 143° Southeast  Level Estimated
12:02PM 41.6766 -70.9578 143° Southeast  Level Estimated
12:03PM 41.6766 -70.9578 143° Southeast  Level Estimated
12:04PM 41.6766 -70.9578 143° Southeast  Level Estimated
12:05PM 41.6766 -70.9578 143° Southeast  Level Estimated
12:06PM 41.6766 -70.9578 143° Southeast  Level Estimated
12:07PM 41.6766 -70.9578 143° Southeast  Level Estimated
12:08PM 41.6766 -70.9578 143° Southeast  Level Estimated
12:09PM 41.6766 -70.9578 143° Southeast  Level Estimated
12:10PM 41.6766 -70.9578 143° Southeast  Level Estimated
12:11PM 41.6766 -70.9578 143° Southeast  Level Estimated
12:12PM 41.6766 -70.9578 143° Southeast  Level Estimated